Bithav — PCAQ — position and weather

sailwx.info

Track history (hours):
 
Tides and Currents Weather Stations Pressure Air Temp Water Temp Dewpoint Dewpoint Depression Visibility Wind Speed Wind Dir Waves Ship Positions

Bithav

Last reported at 2018-Jan-18 20:33 UTC. Time now 2018-Jan-19 05:57 UTC.
Position N 48°07' W 005°47'.

Length 115 m; draft 4.8 m.

Type: Ship. MMSI: 246697000.

Date/timePositionNaut miles runAvg speedWind from/ knotsBaromVisibWave heightAir tempDewpointWater temp
2018-Jan-18 20:33N 48°07' W 005°47'  
2018-Jan-12 14:58N 51°31' E 000°08'0 0.0
2018-Jan-12 14:28N 51°31' E 000°08'0 0.0
2018-Jan-12 13:52N 51°31' E 000°08'0 0.0
2018-Jan-12 13:28N 51°31' E 000°08'0 0.0
2018-Jan-12 13:00N 51°31' E 000°08'0 0.0
2018-Jan-12 12:30N 51°31' E 000°08'0 0.0
2018-Jan-12 12:00N 51°31' E 000°08'0 0.4
2018-Jan-12 11:30N 51°31' E 000°09'4 8.3
2018-Jan-12 11:00N 51°29' E 000°14'4 7.8
2018-Jan-12 10:30N 51°27' E 000°20'4 8.7
2018-Jan-12 10:01N 51°28' E 000°27'510.0
2018-Jan-12 09:30N 51°30' E 000°34'713.9
2018-Jan-12 09:00N 51°30' E 000°45'714.3
2018-Jan-12 08:31N 51°29' E 000°57'714.1
2018-Jan-12 08:00N 51°29' E 001°08'714.6
2018-Jan-12 07:31N 51°29' E 001°20'714.1
2018-Jan-12 07:00N 51°25' E 001°30'4 7.3
2018-Jan-12 06:30N 51°28' E 001°34'4 8.3
2018-Jan-12 06:00N 51°30' E 001°40'4 8.7
2018-Jan-12 05:30N 51°30' E 001°47'4 8.7
2018-Jan-12 05:00N 51°29' E 001°54'5 9.2
2018-Jan-12 04:30N 51°26' E 001°60'510.2
2018-Jan-12 04:00N 51°24' E 002°07'613.0
2018-Jan-12 03:31N 51°20' E 002°16'814.9
2018-Jan-12 02:59N 51°23' E 002°28'814.4
2018-Jan-12 02:24N 51°23' E 002°41'512.9
2018-Jan-12 02:00N 51°22' E 002°50'714.5
2018-Jan-12 01:30N 51°24' E 003°01'714.4
2018-Jan-12 01:01N 51°24' E 003°12'815.1
2018-Jan-12 00:31N 51°25' E 003°24'714.1
2018-Jan-12 00:00N 51°26' E 003°36'511.1
2018-Jan-11 23:30N 51°23' E 003°43'713.4
2018-Jan-11 23:00N 51°21' E 003°53'612.7
2018-Jan-11 22:30N 51°26' E 004°00'510.9
2018-Jan-11 22:00N 51°22' E 004°06'4 8.8
2018-Jan-11 21:30N 51°23' E 004°13'510.9
2018-Jan-11 21:00N 51°18' E 004°17'4 8.2
2018-Jan-11 20:30N 51°15' E 004°20'3 5.1
2018-Jan-11 20:00N 51°12' E 004°22'0 0.6
2018-Jan-11 19:30N 51°12' E 004°21'0 0.0
2018-Jan-11 19:00N 51°12' E 004°21'0 0.0
2018-Jan-11 18:30N 51°12' E 004°21'0 0.0
2018-Jan-11 17:59N 51°12' E 004°21'0 0.0
2018-Jan-11 17:29N 51°12' E 004°21'0 0.0
2018-Jan-11 16:59N 51°12' E 004°21'0 0.0
2018-Jan-11 16:29N 51°12' E 004°21'0 0.0
2018-Jan-11 15:58N 51°12' E 004°21'0 0.0
2018-Jan-11 15:28N 51°12' E 004°21'0 0.0
2018-Jan-11 14:58N 51°12' E 004°21'0 0.0
2018-Jan-11 14:28N 51°12' E 004°21'0 0.0
2018-Jan-11 13:58N 51°12' E 004°21'0 0.0
2018-Jan-11 13:30N 51°12' E 004°21'0 0.0
2018-Jan-11 13:00N 51°12' E 004°21'0 0.0
2018-Jan-11 12:30N 51°12' E 004°21'0 0.0
2018-Jan-11 11:54N 51°12' E 004°21'0 0.0
2018-Jan-11 11:30N 51°12' E 004°21'0 0.0
2018-Jan-11 10:56N 51°12' E 004°21'0 0.0
2018-Jan-11 10:29N 51°12' E 004°21'0 0.0
2018-Jan-11 09:59N 51°12' E 004°21'0 0.0
2018-Jan-11 09:29N 51°12' E 004°21'0 0.0
2018-Jan-11 09:00N 51°12' E 004°21'0 0.0
2018-Jan-11 08:28N 51°12' E 004°21'0 0.0
2018-Jan-11 07:58N 51°12' E 004°21'0 0.0
2018-Jan-11 07:30N 51°12' E 004°21'0 0.0
2018-Jan-11 06:58N 51°12' E 004°21'0 0.0
2018-Jan-11 06:30N 51°12' E 004°21'0 0.3
2018-Jan-11 06:00N 51°12' E 004°21'3 5.2
2018-Jan-11 05:30N 51°14' E 004°24'4 7.7
2018-Jan-11 05:00N 51°17' E 004°19'510.5
2018-Jan-11 04:30N 51°21' E 004°15'4 8.6
2018-Jan-11 04:00N 51°22' E 004°08'510.2
2018-Jan-11 03:30N 51°25' E 004°02'5 9.4
2018-Jan-11 03:00N 51°22' E 003°56'511.1
2018-Jan-11 02:30N 51°21' E 003°47'510.7
2018-Jan-11 02:00N 51°25' E 003°42'510.1
2018-Jan-11 01:30N 51°25' E 003°34'5 9.6
2018-Jan-11 01:00N 51°25' E 003°26'5 9.9
2018-Jan-11 00:30N 51°24' E 003°18'510.1
2018-Jan-11 00:00N 51°24' E 003°10'612.0
2018-Jan-10 23:30N 51°24' E 003°01'713.3
2018-Jan-10 23:00N 51°22' E 002°50'612.8
2018-Jan-10 22:30N 51°22' E 002°40'511.1
2018-Jan-10 22:00N 51°22' E 002°31'5 9.7
2018-Jan-10 21:30N 51°20' E 002°24'5 9.9
2018-Jan-10 21:00N 51°18' E 002°17'611.7
2018-Jan-10 20:30N 51°15' E 002°09'713.0
2018-Jan-10 20:00N 51°11' E 002°00'714.0
2018-Jan-10 19:31N 51°08' E 001°51'714.5
2018-Jan-10 19:00N 51°03' E 001°42'815.2
2018-Jan-10 18:30N 50°57' E 001°34'7614.7
2018-Jan-10 13:20N 49°58' E 000°20'514.4
2018-Jan-10 13:00N 49°54' E 000°15'714.0
2018-Jan-10 12:30N 49°49' E 000°09'713.6
2018-Jan-10 12:00N 49°44' E 000°01'713.5
2018-Jan-10 11:30N 49°38' W 000°03'713.1
2018-Jan-10 11:00N 49°32' W 000°07'611.3
2018-Jan-10 10:30N 49°28' W 000°01'612.0
2018-Jan-10 10:00N 49°26' E 000°08'714.2
2018-Jan-10 09:30N 49°26' E 000°19'714.8
2018-Jan-10 09:01N 49°29' E 000°29'2 4.2
2018-Jan-10 08:28N 49°28' E 000°32'0 0.0
2018-Jan-10 07:55N 49°28' E 000°32'0 0.0
2018-Jan-10 07:25N 49°28' E 000°32'0 0.0
2018-Jan-10 07:00N 49°28' E 000°32'0 0.0
2018-Jan-10 06:27N 49°28' E 000°32'0 0.0
2018-Jan-10 06:00N 49°28' E 000°32'0 0.0
2018-Jan-10 05:30N 49°28' E 000°32'0 0.0
2018-Jan-10 05:00N 49°28' E 000°32'0 0.0
2018-Jan-10 04:29N 49°28' E 000°32'0 0.0
2018-Jan-10 03:59N 49°28' E 000°32'0 0.0
2018-Jan-10 03:29N 49°28' E 000°32'0 0.0
2018-Jan-10 02:59N 49°28' E 000°32'0 0.0
2018-Jan-10 02:29N 49°28' E 000°32'0 0.0
2018-Jan-10 01:58N 49°28' E 000°32'0 0.0
2018-Jan-10 01:28N 49°28' E 000°32'0 0.0
2018-Jan-10 00:58N 49°28' E 000°32'0 0.0
2018-Jan-10 00:28N 49°28' E 000°32'0 0.0
2018-Jan-10 00:00N 49°28' E 000°32'0 0.0
2018-Jan-09 23:27N 49°28' E 000°32'0 0.0
2018-Jan-09 23:00N 49°28' E 000°32'0 0.0
2018-Jan-09 22:30N 49°28' E 000°32'0 0.0
2018-Jan-09 22:00N 49°28' E 000°32'0 0.0
2018-Jan-09 21:29N 49°28' E 000°32'0 0.0
2018-Jan-09 20:59N 49°28' E 000°32'0 0.0
2018-Jan-09 20:29N 49°28' E 000°32'0 0.0
2018-Jan-09 19:59N 49°28' E 000°32'0 0.0
2018-Jan-09 19:28N 49°28' E 000°32'0 0.0
2018-Jan-09 18:58N 49°28' E 000°32'0 0.0
2018-Jan-09 18:28N 49°28' E 000°32'0 0.0
2018-Jan-09 17:58N 49°28' E 000°32'0 0.0
2018-Jan-09 17:28N 49°28' E 000°32'0 0.0
2018-Jan-09 17:00N 49°28' E 000°32'0 0.0
2018-Jan-09 16:30N 49°28' E 000°32'0 0.0
2018-Jan-09 16:00N 49°28' E 000°32'0 0.0
2018-Jan-09 15:30N 49°28' E 000°32'0 0.0
2018-Jan-09 15:00N 49°28' E 000°32'0 0.0
2018-Jan-09 14:29N 49°28' E 000°32'0 0.0
2018-Jan-09 13:59N 49°28' E 000°32'0 0.0
2018-Jan-09 13:23N 49°28' E 000°32'0 0.0
2018-Jan-09 12:56N 49°28' E 000°32'0 0.0
2018-Jan-09 12:28N 49°28' E 000°32'0 0.0
2018-Jan-09 11:58N 49°28' E 000°32'0 0.0
2018-Jan-09 11:28N 49°28' E 000°32'0 0.0
2018-Jan-09 10:58N 49°28' E 000°32'0 0.0
2018-Jan-09 10:28N 49°28' E 000°32'0 0.0
2018-Jan-09 10:00N 49°28' E 000°32'0 0.0
2018-Jan-09 09:30N 49°28' E 000°32'0 0.0
2018-Jan-09 09:00N 49°28' E 000°32'0 0.0
2018-Jan-09 08:30N 49°28' E 000°32'0 0.0
2018-Jan-09 08:00N 49°28' E 000°32'0 0.0
2018-Jan-09 07:29N 49°28' E 000°32'0 0.0
2018-Jan-09 06:59N 49°28' E 000°32'0 0.0
2018-Jan-09 06:29N 49°28' E 000°32'0 0.0
2018-Jan-09 05:59N 49°28' E 000°32'0 0.2
2018-Jan-09 05:30N 49°28' E 000°32'3 5.7
2018-Jan-09 05:00N 49°28' E 000°28'612.3
2018-Jan-09 04:30N 49°26' E 000°19'611.9
2018-Jan-09 04:00N 49°26' E 000°10'612.4
2018-Jan-09 03:30N 49°27' E 000°01'3 6.1
2018-Jan-09 03:00N 49°29' E 000°04'2 4.5
2018-Jan-09 02:30N 49°29' E 000°07'0 0.0
2018-Jan-09 02:00N 49°29' E 000°07'0 0.0
2018-Jan-09 01:30N 49°29' E 000°07'0 0.0
2018-Jan-09 00:59N 49°29' E 000°07'0 0.0
2018-Jan-09 00:29N 49°29' E 000°07'0 0.0
2018-Jan-08 23:59N 49°29' E 000°07'0 0.0
2018-Jan-08 23:29N 49°29' E 000°07'0 0.0
2018-Jan-08 22:58N 49°29' E 000°07'0 0.0
2018-Jan-08 22:28N 49°29' E 000°07'0 0.0
2018-Jan-08 21:58N 49°29' E 000°07'0 0.0
2018-Jan-08 21:28N 49°29' E 000°07'0 0.0
2018-Jan-08 20:58N 49°29' E 000°07'  
Track history (hours):
 
Tides and Currents Weather Stations Pressure Air Temp Water Temp Dewpoint Dewpoint Depression Visibility Wind Speed Wind Dir Waves Ship Positions

Bithav

Last reported at 2018-Jan-18 20:33 UTC. Time now 2018-Jan-19 05:57 UTC.
Position N 48°07' W 005°47'.

Length 115 m; draft 4.8 m.

Type: Ship. MMSI: 246697000.

Date/timePositionNaut miles runAvg speedWind from/ knotsBaromVisibWave heightAir tempDewpointWater temp
2018-Jan-18 20:33N 48°07' W 005°47'  
2018-Jan-12 14:58N 51°31' E 000°08'0 0.0
2018-Jan-12 14:28N 51°31' E 000°08'0 0.0
2018-Jan-12 13:52N 51°31' E 000°08'0 0.0
2018-Jan-12 13:28N 51°31' E 000°08'0 0.0
2018-Jan-12 13:00N 51°31' E 000°08'0 0.0
2018-Jan-12 12:30N 51°31' E 000°08'0 0.0
2018-Jan-12 12:00N 51°31' E 000°08'0 0.4
2018-Jan-12 11:30N 51°31' E 000°09'4 8.3
2018-Jan-12 11:00N 51°29' E 000°14'4 7.8
2018-Jan-12 10:30N 51°27' E 000°20'4 8.7
2018-Jan-12 10:01N 51°28' E 000°27'510.0
2018-Jan-12 09:30N 51°30' E 000°34'713.9
2018-Jan-12 09:00N 51°30' E 000°45'714.3
2018-Jan-12 08:31N 51°29' E 000°57'714.1
2018-Jan-12 08:00N 51°29' E 001°08'714.6
2018-Jan-12 07:31N 51°29' E 001°20'714.1
2018-Jan-12 07:00N 51°25' E 001°30'4 7.3
2018-Jan-12 06:30N 51°28' E 001°34'4 8.3
2018-Jan-12 06:00N 51°30' E 001°40'4 8.7
2018-Jan-12 05:30N 51°30' E 001°47'4 8.7
2018-Jan-12 05:00N 51°29' E 001°54'5 9.2
2018-Jan-12 04:30N 51°26' E 001°60'510.2
2018-Jan-12 04:00N 51°24' E 002°07'613.0
2018-Jan-12 03:31N 51°20' E 002°16'814.9
2018-Jan-12 02:59N 51°23' E 002°28'814.4
2018-Jan-12 02:24N 51°23' E 002°41'512.9
2018-Jan-12 02:00N 51°22' E 002°50'714.5
2018-Jan-12 01:30N 51°24' E 003°01'714.4
2018-Jan-12 01:01N 51°24' E 003°12'815.1
2018-Jan-12 00:31N 51°25' E 003°24'714.1
2018-Jan-12 00:00N 51°26' E 003°36'511.1
2018-Jan-11 23:30N 51°23' E 003°43'713.4
2018-Jan-11 23:00N 51°21' E 003°53'612.7
2018-Jan-11 22:30N 51°26' E 004°00'510.9
2018-Jan-11 22:00N 51°22' E 004°06'4 8.8
2018-Jan-11 21:30N 51°23' E 004°13'510.9
2018-Jan-11 21:00N 51°18' E 004°17'4 8.2
2018-Jan-11 20:30N 51°15' E 004°20'3 5.1
2018-Jan-11 20:00N 51°12' E 004°22'0 0.6
2018-Jan-11 19:30N 51°12' E 004°21'0 0.0
2018-Jan-11 19:00N 51°12' E 004°21'0 0.0
2018-Jan-11 18:30N 51°12' E 004°21'0 0.0
2018-Jan-11 17:59N 51°12' E 004°21'0 0.0
2018-Jan-11 17:29N 51°12' E 004°21'0 0.0
2018-Jan-11 16:59N 51°12' E 004°21'0 0.0
2018-Jan-11 16:29N 51°12' E 004°21'0 0.0
2018-Jan-11 15:58N 51°12' E 004°21'0 0.0
2018-Jan-11 15:28N 51°12' E 004°21'0 0.0
2018-Jan-11 14:58N 51°12' E 004°21'0 0.0
2018-Jan-11 14:28N 51°12' E 004°21'0 0.0
2018-Jan-11 13:58N 51°12' E 004°21'0 0.0
2018-Jan-11 13:30N 51°12' E 004°21'0 0.0
2018-Jan-11 13:00N 51°12' E 004°21'0 0.0
2018-Jan-11 12:30N 51°12' E 004°21'0 0.0
2018-Jan-11 11:54N 51°12' E 004°21'0 0.0
2018-Jan-11 11:30N 51°12' E 004°21'0 0.0
2018-Jan-11 10:56N 51°12' E 004°21'0 0.0
2018-Jan-11 10:29N 51°12' E 004°21'0 0.0
2018-Jan-11 09:59N 51°12' E 004°21'0 0.0
2018-Jan-11 09:29N 51°12' E 004°21'0 0.0
2018-Jan-11 09:00N 51°12' E 004°21'0 0.0
2018-Jan-11 08:28N 51°12' E 004°21'0 0.0
2018-Jan-11 07:58N 51°12' E 004°21'0 0.0
2018-Jan-11 07:30N 51°12' E 004°21'0 0.0
2018-Jan-11 06:58N 51°12' E 004°21'0 0.0
2018-Jan-11 06:30N 51°12' E 004°21'0 0.3
2018-Jan-11 06:00N 51°12' E 004°21'3 5.2
2018-Jan-11 05:30N 51°14' E 004°24'4 7.7
2018-Jan-11 05:00N 51°17' E 004°19'510.5
2018-Jan-11 04:30N 51°21' E 004°15'4 8.6
2018-Jan-11 04:00N 51°22' E 004°08'510.2
2018-Jan-11 03:30N 51°25' E 004°02'5 9.4
2018-Jan-11 03:00N 51°22' E 003°56'511.1
2018-Jan-11 02:30N 51°21' E 003°47'510.7
2018-Jan-11 02:00N 51°25' E 003°42'510.1
2018-Jan-11 01:30N 51°25' E 003°34'5 9.6
2018-Jan-11 01:00N 51°25' E 003°26'5 9.9
2018-Jan-11 00:30N 51°24' E 003°18'510.1
2018-Jan-11 00:00N 51°24' E 003°10'612.0
2018-Jan-10 23:30N 51°24' E 003°01'713.3
2018-Jan-10 23:00N 51°22' E 002°50'612.8
2018-Jan-10 22:30N 51°22' E 002°40'511.1
2018-Jan-10 22:00N 51°22' E 002°31'5 9.7
2018-Jan-10 21:30N 51°20' E 002°24'5 9.9
2018-Jan-10 21:00N 51°18' E 002°17'611.7
2018-Jan-10 20:30N 51°15' E 002°09'713.0
2018-Jan-10 20:00N 51°11' E 002°00'714.0
2018-Jan-10 19:31N 51°08' E 001°51'714.5
2018-Jan-10 19:00N 51°03' E 001°42'815.2
2018-Jan-10 18:30N 50°57' E 001°34'7614.7
2018-Jan-10 13:20N 49°58' E 000°20'514.4
2018-Jan-10 13:00N 49°54' E 000°15'714.0
2018-Jan-10 12:30N 49°49' E 000°09'713.6
2018-Jan-10 12:00N 49°44' E 000°01'713.5
2018-Jan-10 11:30N 49°38' W 000°03'713.1
2018-Jan-10 11:00N 49°32' W 000°07'611.3
2018-Jan-10 10:30N 49°28' W 000°01'612.0
2018-Jan-10 10:00N 49°26' E 000°08'714.2
2018-Jan-10 09:30N 49°26' E 000°19'714.8
2018-Jan-10 09:01N 49°29' E 000°29'2 4.2
2018-Jan-10 08:28N 49°28' E 000°32'0 0.0
2018-Jan-10 07:55N 49°28' E 000°32'0 0.0
2018-Jan-10 07:25N 49°28' E 000°32'0 0.0
2018-Jan-10 07:00N 49°28' E 000°32'0 0.0
2018-Jan-10 06:27N 49°28' E 000°32'0 0.0
2018-Jan-10 06:00N 49°28' E 000°32'0 0.0
2018-Jan-10 05:30N 49°28' E 000°32'0 0.0
2018-Jan-10 05:00N 49°28' E 000°32'0 0.0
2018-Jan-10 04:29N 49°28' E 000°32'0 0.0
2018-Jan-10 03:59N 49°28' E 000°32'0 0.0
2018-Jan-10 03:29N 49°28' E 000°32'0 0.0
2018-Jan-10 02:59N 49°28' E 000°32'0 0.0
2018-Jan-10 02:29N 49°28' E 000°32'0 0.0
2018-Jan-10 01:58N 49°28' E 000°32'0 0.0
2018-Jan-10 01:28N 49°28' E 000°32'0 0.0
2018-Jan-10 00:58N 49°28' E 000°32'0 0.0
2018-Jan-10 00:28N 49°28' E 000°32'0 0.0
2018-Jan-10 00:00N 49°28' E 000°32'0 0.0
2018-Jan-09 23:27N 49°28' E 000°32'0 0.0
2018-Jan-09 23:00N 49°28' E 000°32'0 0.0
2018-Jan-09 22:30N 49°28' E 000°32'0 0.0
2018-Jan-09 22:00N 49°28' E 000°32'0 0.0
2018-Jan-09 21:29N 49°28' E 000°32'0 0.0
2018-Jan-09 20:59N 49°28' E 000°32'0 0.0
2018-Jan-09 20:29N 49°28' E 000°32'0 0.0
2018-Jan-09 19:59N 49°28' E 000°32'0 0.0
2018-Jan-09 19:28N 49°28' E 000°32'0 0.0
2018-Jan-09 18:58N 49°28' E 000°32'0 0.0
2018-Jan-09 18:28N 49°28' E 000°32'0 0.0
2018-Jan-09 17:58N 49°28' E 000°32'0 0.0
2018-Jan-09 17:28N 49°28' E 000°32'0 0.0
2018-Jan-09 17:00N 49°28' E 000°32'0 0.0
2018-Jan-09 16:30N 49°28' E 000°32'0 0.0
2018-Jan-09 16:00N 49°28' E 000°32'0 0.0
2018-Jan-09 15:30N 49°28' E 000°32'0 0.0
2018-Jan-09 15:00N 49°28' E 000°32'0 0.0
2018-Jan-09 14:29N 49°28' E 000°32'0 0.0
2018-Jan-09 13:59N 49°28' E 000°32'0 0.0
2018-Jan-09 13:23N 49°28' E 000°32'0 0.0
2018-Jan-09 12:56N 49°28' E 000°32'0 0.0
2018-Jan-09 12:28N 49°28' E 000°32'0 0.0
2018-Jan-09 11:58N 49°28' E 000°32'0 0.0
2018-Jan-09 11:28N 49°28' E 000°32'0 0.0
2018-Jan-09 10:58N 49°28' E 000°32'0 0.0
2018-Jan-09 10:28N 49°28' E 000°32'0 0.0
2018-Jan-09 10:00N 49°28' E 000°32'0 0.0
2018-Jan-09 09:30N 49°28' E 000°32'0 0.0
2018-Jan-09 09:00N 49°28' E 000°32'0 0.0
2018-Jan-09 08:30N 49°28' E 000°32'0 0.0
2018-Jan-09 08:00N 49°28' E 000°32'0 0.0
2018-Jan-09 07:29N 49°28' E 000°32'0 0.0
2018-Jan-09 06:59N 49°28' E 000°32'0 0.0
2018-Jan-09 06:29N 49°28' E 000°32'0 0.0
2018-Jan-09 05:59N 49°28' E 000°32'0 0.2
2018-Jan-09 05:30N 49°28' E 000°32'3 5.7
2018-Jan-09 05:00N 49°28' E 000°28'612.3
2018-Jan-09 04:30N 49°26' E 000°19'611.9
2018-Jan-09 04:00N 49°26' E 000°10'612.4
2018-Jan-09 03:30N 49°27' E 000°01'3 6.1
2018-Jan-09 03:00N 49°29' E 000°04'2 4.5
2018-Jan-09 02:30N 49°29' E 000°07'0 0.0
2018-Jan-09 02:00N 49°29' E 000°07'0 0.0
2018-Jan-09 01:30N 49°29' E 000°07'0 0.0
2018-Jan-09 00:59N 49°29' E 000°07'0 0.0
2018-Jan-09 00:29N 49°29' E 000°07'0 0.0
2018-Jan-08 23:59N 49°29' E 000°07'0 0.0
2018-Jan-08 23:29N 49°29' E 000°07'0 0.0
2018-Jan-08 22:58N 49°29' E 000°07'0 0.0
2018-Jan-08 22:28N 49°29' E 000°07'0 0.0
2018-Jan-08 21:58N 49°29' E 000°07'0 0.0
2018-Jan-08 21:28N 49°29' E 000°07'0 0.0
2018-Jan-08 20:58N 49°29' E 000°07'  

Dump ship's entire track history